createdAt,value
2019-02-08T00:00:22.417Z,18.98
2019-02-08T00:02:26.658Z,21.42
2019-02-08T00:04:31.046Z,22.90
2019-02-08T00:06:35.251Z,28.52
2019-02-08T00:08:39.165Z,28.50
2019-02-08T00:10:43.270Z,26.27
2019-02-08T00:12:47.584Z,25.20
2019-02-08T00:14:54.323Z,25.45
2019-02-08T00:16:58.464Z,27.52
2019-02-08T00:19:02.580Z,28.62
2019-02-08T00:21:07.196Z,28.77
2019-02-08T00:23:11.309Z,25.50
2019-02-08T00:25:22.513Z,24.25
2019-02-08T00:27:26.821Z,24.85
2019-02-08T00:29:31.016Z,21.02
2019-02-08T00:31:35.223Z,19.25
2019-02-08T00:33:39.352Z,25.55
2019-02-08T00:35:43.651Z,21.93
2019-02-08T00:37:47.867Z,25.80
2019-02-08T00:39:51.691Z,24.98
2019-02-08T00:41:55.887Z,19.57
2019-02-08T00:44:00.093Z,23.22
2019-02-08T00:46:04.403Z,20.45
2019-02-08T00:48:08.225Z,23.62
2019-02-08T00:50:20.517Z,24.20
2019-02-08T00:52:24.637Z,25.52
2019-02-08T00:54:30.390Z,26.27
2019-02-08T00:56:34.211Z,24.92
2019-02-08T00:58:38.395Z,19.12
2019-02-08T01:00:42.794Z,20.62
2019-02-08T01:02:52.038Z,22.67
2019-02-08T01:04:56.139Z,24.77
2019-02-08T01:07:00.364Z,24.10
2019-02-08T01:09:08.062Z,20.27
2019-02-08T01:11:11.886Z,27.93
2019-02-08T01:13:16.061Z,21.80
2019-02-08T01:15:21.227Z,26.02
2019-02-08T01:17:25.049Z,31.73
2019-02-08T01:19:29.269Z,24.47
2019-02-08T01:21:33.435Z,28.47
2019-02-08T01:23:41.454Z,24.57
2019-02-08T01:25:46.061Z,24.20
2019-02-08T01:27:50.374Z,22.42
2019-02-08T01:29:54.469Z,22.80
2019-02-08T01:31:58.681Z,21.10
2019-02-08T01:34:05.674Z,26.97
2019-02-08T01:36:11.335Z,25.17
2019-02-08T01:38:15.518Z,25.17
2019-02-08T01:40:21.957Z,19.42
2019-02-08T01:42:25.777Z,23.73
2019-02-08T01:44:29.999Z,25.10
2019-02-08T01:46:33.820Z,22.50
2019-02-08T01:48:40.272Z,22.95
2019-02-08T01:50:44.393Z,22.30
2019-02-08T01:52:49.927Z,20.97
2019-02-08T01:54:54.039Z,22.93
2019-02-08T01:56:57.887Z,19.95
2019-02-08T01:59:02.053Z,25.97
2019-02-08T02:01:07.409Z,26.10
2019-02-08T02:03:11.917Z,23.30
2019-02-08T02:05:16.386Z,23.73
2019-02-08T02:07:20.293Z,21.17
2019-02-08T02:09:24.191Z,20.75
2019-02-08T02:11:28.361Z,23.80
2019-02-08T02:13:33.493Z,23.52
2019-02-08T02:15:37.809Z,24.87
2019-02-08T02:17:45.843Z,23.92
2019-02-08T02:19:51.663Z,22.07
2019-02-08T02:21:55.765Z,26.07
2019-02-08T02:23:59.975Z,23.30
2019-02-08T02:26:04.187Z,21.02
2019-02-08T02:28:08.717Z,17.07
2019-02-08T02:30:27.886Z,26.07
2019-02-08T02:32:32.093Z,20.50
2019-02-08T02:34:36.306Z,22.10
2019-02-08T02:36:41.039Z,24.43
2019-02-08T02:38:45.235Z,19.12
2019-02-08T02:40:49.351Z,24.35
2019-02-08T02:42:53.347Z,24.65
2019-02-08T02:44:57.461Z,24.25
2019-02-08T02:47:01.586Z,22.32
2019-02-08T02:49:05.707Z,19.32
2019-02-08T02:51:09.781Z,22.98
2019-02-08T02:53:13.692Z,19.65
2019-02-08T02:55:31.674Z,21.90
2019-02-08T02:57:35.844Z,19.17
2019-02-08T02:59:39.951Z,20.37
2019-02-08T03:01:44.181Z,17.37
2019-02-08T03:03:49.814Z,18.30
2019-02-08T03:05:54.044Z,19.77
2019-02-08T03:07:58.033Z,23.98
2019-02-08T03:10:02.148Z,23.87
2019-02-08T03:12:06.055Z,20.48
2019-02-08T03:14:10.215Z,21.15
2019-02-08T03:16:14.509Z,19.90
2019-02-08T03:18:18.692Z,23.87
2019-02-08T03:20:25.004Z,22.25
2019-02-08T03:22:29.164Z,24.87
2019-02-08T03:24:33.376Z,18.52
2019-02-08T03:26:38.635Z,18.73
2019-02-08T03:28:42.397Z,21.00
2019-02-08T03:30:50.614Z,20.32
2019-02-08T03:32:54.422Z,17.42
2019-02-08T03:34:58.535Z,21.30
2019-02-08T03:37:02.466Z,20.08
2019-02-08T03:39:08.187Z,22.80
2019-02-08T03:41:12.300Z,20.25
2019-02-08T03:43:16.313Z,23.27
2019-02-08T03:45:20.625Z,19.00
2019-02-08T03:47:28.634Z,22.35
2019-02-08T03:49:33.042Z,21.80
2019-02-08T03:51:36.868Z,24.02
2019-02-08T03:53:41.064Z,21.50
2019-02-08T03:55:45.408Z,19.07
2019-02-08T03:57:51.393Z,21.77
2019-02-08T03:59:55.545Z,20.60
2019-02-08T04:01:59.769Z,18.10
2019-02-08T04:04:13.338Z,19.17
2019-02-08T04:06:17.717Z,18.40
2019-02-08T04:08:24.068Z,20.85
2019-02-08T04:10:28.650Z,23.00
2019-02-08T04:12:32.794Z,23.73
2019-02-08T04:14:36.678Z,22.55
2019-02-08T04:16:40.506Z,26.15
2019-02-08T04:18:44.715Z,24.35
2019-02-08T04:20:48.838Z,20.43
2019-02-08T04:22:53.250Z,21.55
2019-02-08T04:24:57.096Z,22.27
2019-02-08T04:27:01.252Z,17.73
2019-02-08T04:29:05.568Z,25.57
2019-02-08T04:31:09.787Z,22.93
2019-02-08T04:33:15.860Z,23.70
2019-02-08T04:35:20.466Z,24.05
2019-02-08T04:37:25.180Z,24.75
2019-02-08T04:39:29.291Z,25.43
2019-02-08T04:41:35.174Z,21.68
2019-02-08T04:43:39.024Z,23.38
2019-02-08T04:45:42.854Z,23.47
2019-02-08T04:47:46.779Z,27.35
2019-02-08T04:49:50.964Z,23.27
2019-02-08T04:51:56.199Z,24.90
2019-02-08T04:54:00.062Z,22.27
2019-02-08T04:56:03.939Z,23.42
2019-02-08T04:58:07.754Z,21.02
2019-02-08T05:00:31.820Z,22.10
2019-02-08T05:02:35.654Z,21.37
2019-02-08T05:04:39.562Z,20.62
2019-02-08T05:06:43.727Z,20.30
2019-02-08T05:08:47.829Z,28.77
2019-02-08T05:10:51.656Z,25.55
2019-02-08T05:12:55.815Z,19.92
2019-02-08T05:14:59.634Z,20.10
2019-02-08T05:17:03.980Z,18.55
2019-02-08T05:19:07.864Z,21.57
2019-02-08T05:21:11.699Z,20.32
2019-02-08T05:23:15.522Z,26.45
2019-02-08T05:25:19.901Z,24.12
2019-02-08T05:27:24.111Z,20.95
2019-02-08T05:29:27.926Z,20.55
2019-02-08T05:31:32.330Z,22.48
2019-02-08T05:33:36.442Z,21.55
2019-02-08T05:35:40.257Z,25.17
2019-02-08T05:37:44.098Z,18.52
2019-02-08T05:39:47.924Z,22.32
2019-02-08T05:41:52.059Z,20.08
2019-02-08T05:43:55.996Z,20.02
2019-02-08T05:46:00.175Z,23.40
2019-02-08T05:48:04.897Z,19.02
2019-02-08T05:50:12.398Z,19.60
2019-02-08T05:52:16.604Z,17.05
2019-02-08T05:54:20.434Z,19.73
2019-02-08T05:56:24.621Z,24.50
2019-02-08T05:58:28.442Z,19.27
2019-02-08T06:00:39.498Z,20.17
2019-02-08T06:02:43.745Z,25.82
2019-02-08T06:04:47.618Z,26.37
2019-02-08T06:06:51.461Z,20.08
2019-02-08T06:08:55.568Z,24.47
2019-02-08T06:11:00.072Z,19.75
2019-02-08T06:13:04.762Z,23.67
2019-02-08T06:15:20.866Z,17.65
2019-02-08T06:17:24.970Z,26.45
2019-02-08T06:19:30.737Z,20.75
2019-02-08T06:21:34.656Z,22.67
2019-02-08T06:23:38.846Z,16.25
2019-02-08T06:25:42.808Z,18.30
2019-02-08T06:27:47.152Z,17.95
2019-02-08T06:29:51.262Z,20.57
2019-02-08T06:31:55.488Z,22.93
2019-02-08T06:33:59.613Z,18.98
2019-02-08T06:36:05.350Z,24.75
2019-02-08T06:38:09.274Z,18.92
2019-02-08T06:40:19.120Z,21.35
2019-02-08T06:42:22.932Z,28.90
2019-02-08T06:44:27.112Z,14.05
2019-02-08T06:46:31.363Z,18.52
2019-02-08T06:48:35.984Z,21.80
2019-02-08T06:50:39.871Z,18.25
2019-02-08T06:52:44.165Z,16.35
2019-02-08T06:54:48.260Z,14.68
2019-02-08T06:57:02.928Z,17.00
2019-02-08T06:59:08.674Z,16.87
2019-02-08T07:01:14.548Z,19.48
2019-02-08T07:03:23.343Z,16.23
2019-02-08T07:05:29.095Z,18.50
2019-02-08T07:07:37.819Z,20.15
2019-02-08T07:09:45.883Z,15.85
2019-02-08T07:12:03.665Z,15.10
2019-02-08T07:14:28.855Z,22.30
2019-02-08T07:16:46.635Z,22.45
2019-02-08T07:18:57.850Z,18.10
2019-02-08T07:21:09.851Z,15.70
2019-02-08T07:23:15.612Z,17.05
2019-02-08T07:25:21.485Z,19.65
2019-02-08T07:27:42.357Z,11.85
2019-02-08T07:29:51.001Z,17.07
2019-02-08T07:31:56.939Z,16.52
2019-02-08T07:34:16.409Z,15.50
2019-02-08T07:36:34.952Z,18.12
2019-02-08T07:38:40.900Z,18.32
2019-02-08T07:41:05.999Z,12.80
2019-02-08T07:43:18.297Z,18.98
2019-02-08T07:45:24.471Z,22.58
2019-02-08T07:47:45.309Z,14.90
2019-02-08T07:49:53.873Z,16.05
2019-02-08T07:52:05.677Z,12.43
2019-02-08T07:54:27.779Z,14.93
2019-02-08T07:56:42.477Z,14.85
2019-02-08T07:58:48.415Z,14.40
2019-02-08T08:01:03.887Z,17.95
2019-02-08T08:03:24.810Z,20.20
2019-02-08T08:05:36.803Z,14.47
2019-02-08T08:07:43.302Z,16.65
2019-02-08T08:09:54.641Z,18.62
2019-02-08T08:12:00.907Z,14.05
2019-02-08T08:14:22.850Z,19.45
2019-02-08T08:16:34.240Z,15.40
2019-02-08T08:18:48.969Z,17.77
2019-02-08T08:21:01.170Z,18.17
2019-02-08T08:23:13.155Z,16.42
2019-02-08T08:25:34.111Z,15.38
2019-02-08T08:27:52.518Z,13.48
2019-02-08T08:29:59.592Z,13.53
2019-02-08T08:32:07.369Z,16.25
2019-02-08T08:34:50.825Z,19.67
2019-02-08T08:37:17.527Z,14.40
2019-02-08T08:39:24.461Z,14.78
2019-02-08T08:41:46.459Z,15.95
2019-02-08T08:44:22.528Z,17.12
2019-02-08T08:46:35.753Z,17.98
2019-02-08T08:49:03.855Z,13.98
2019-02-08T08:51:35.289Z,18.52
2019-02-08T08:54:01.923Z,16.52
2019-02-08T08:56:24.153Z,13.45
2019-02-08T08:58:31.063Z,19.95
2019-02-08T09:00:46.439Z,15.40
2019-02-08T09:02:59.307Z,14.03
2019-02-08T09:05:24.568Z,17.90
2019-02-08T09:07:40.208Z,11.28
2019-02-08T09:10:04.816Z,17.27
2019-02-08T09:12:20.614Z,10.78
2019-02-08T09:14:33.597Z,15.88
2019-02-08T09:16:55.838Z,15.93
2019-02-08T09:19:21.178Z,12.70
2019-02-08T09:21:48.089Z,15.90
2019-02-08T09:24:01.409Z,11.78
2019-02-08T09:26:11.097Z,16.80
2019-02-08T09:28:20.666Z,17.35
2019-02-08T09:30:30.940Z,15.58
2019-02-08T09:33:13.025Z,16.12
2019-02-08T09:35:25.496Z,20.25
2019-02-08T09:37:35.211Z,14.47
2019-02-08T09:39:50.970Z,18.27
2019-02-08T09:42:09.941Z,20.95
2019-02-08T09:44:23.062Z,17.32
2019-02-08T09:46:35.684Z,14.98
2019-02-08T09:48:58.094Z,13.25
2019-02-08T09:51:22.023Z,11.88
2019-02-08T09:53:40.928Z,14.98
2019-02-08T09:56:04.245Z,15.70
2019-02-08T09:58:40.361Z,12.05
2019-02-08T10:01:09.498Z,18.32
2019-02-08T10:03:25.439Z,14.28
2019-02-08T10:06:01.197Z,14.15
2019-02-08T10:08:08.069Z,14.60
2019-02-08T10:10:42.394Z,15.05
2019-02-08T10:12:55.094Z,9.95
2019-02-08T10:15:27.677Z,14.60
2019-02-08T10:17:55.600Z,13.65
2019-02-08T10:20:08.187Z,17.10
2019-02-08T10:22:50.037Z,16.45
2019-02-08T10:25:06.353Z,10.72
2019-02-08T10:27:30.048Z,15.10
2019-02-08T10:29:48.865Z,10.50
2019-02-08T10:32:16.027Z,14.13
2019-02-08T10:34:49.047Z,11.48
2019-02-08T10:37:08.710Z,12.25
2019-02-08T10:39:38.511Z,12.37
2019-02-08T10:42:03.554Z,11.48
2019-02-08T10:44:16.263Z,11.73
2019-02-08T10:46:45.922Z,9.90
2019-02-08T10:49:17.290Z,9.58
2019-02-08T10:51:39.531Z,11.65
2019-02-08T10:54:07.991Z,13.60
2019-02-08T10:56:43.512Z,12.03
2019-02-08T10:59:16.299Z,11.22
2019-02-08T11:01:32.506Z,12.07
2019-02-08T11:03:56.406Z,8.40
2019-02-08T11:06:24.661Z,10.63
2019-02-08T11:08:52.418Z,11.93
2019-02-08T11:11:32.891Z,8.70
2019-02-08T11:13:56.325Z,13.28
2019-02-08T11:16:41.589Z,11.50
2019-02-08T11:19:21.364Z,10.32
2019-02-08T11:21:37.993Z,14.60
2019-02-08T11:23:55.025Z,13.85
2019-02-08T11:26:01.197Z,12.20
2019-02-08T11:28:08.734Z,9.33
2019-02-08T11:30:25.475Z,10.05
2019-02-08T11:32:42.850Z,11.73
2019-02-08T11:34:41.576Z,12.60
2019-02-08T11:36:46.995Z,15.72
2019-02-08T11:38:54.104Z,8.20
2019-02-08T11:41:02.689Z,11.75
2019-02-08T11:43:12.786Z,8.78
2019-02-08T11:45:28.891Z,7.15
2019-02-08T11:47:45.772Z,7.72
2019-02-08T11:49:54.112Z,10.90
2019-02-08T11:51:58.786Z,7.78
2019-02-08T11:54:11.059Z,11.00
2019-02-08T11:56:29.903Z,7.90
2019-02-08T11:58:40.394Z,8.98
2019-02-08T12:00:54.038Z,12.68
2019-02-08T12:03:07.220Z,12.95
2019-02-08T12:05:11.654Z,11.45
2019-02-08T12:07:15.835Z,8.43
2019-02-08T12:09:19.722Z,11.57
2019-02-08T12:11:23.878Z,10.30
2019-02-08T12:13:28.104Z,13.08
2019-02-08T12:15:32.606Z,7.65
2019-02-08T12:17:36.740Z,5.20
2019-02-08T12:19:40.952Z,12.00
2019-02-08T12:21:44.772Z,12.00
2019-02-08T12:23:48.956Z,12.33
2019-02-08T12:25:52.767Z,7.40
2019-02-08T12:27:56.877Z,8.20
2019-02-08T12:30:00.712Z,8.40
2019-02-08T12:32:04.980Z,7.37
2019-02-08T12:34:12.017Z,11.95
2019-02-08T12:36:16.182Z,8.48
2019-02-08T12:38:20.303Z,7.12
2019-02-08T12:40:24.116Z,7.53
2019-02-08T12:42:28.292Z,8.83
2019-02-08T12:44:32.527Z,8.63
2019-02-08T12:46:36.619Z,16.75
2019-02-08T12:48:40.867Z,22.98
2019-02-08T12:50:44.736Z,9.55
2019-02-08T12:52:48.864Z,16.07
2019-02-08T12:54:53.058Z,6.42
2019-02-08T12:56:57.166Z,7.08
2019-02-08T12:59:01.276Z,11.60
2019-02-08T13:01:05.600Z,8.18
2019-02-08T13:03:09.712Z,9.60
2019-02-08T13:05:15.830Z,11.22
2019-02-08T13:07:21.733Z,7.62
2019-02-08T13:09:27.732Z,7.87
2019-02-08T13:11:31.884Z,6.92
2019-02-08T13:13:36.096Z,10.88
2019-02-08T13:15:41.740Z,7.12
2019-02-08T13:17:45.865Z,7.37
2019-02-08T13:19:49.648Z,4.62
2019-02-08T13:21:53.858Z,7.97
2019-02-08T13:23:57.970Z,11.33
2019-02-08T13:26:02.096Z,11.70
2019-02-08T13:28:06.202Z,13.05
2019-02-08T13:30:25.681Z,9.70
2019-02-08T13:32:29.784Z,6.28
2019-02-08T13:34:33.892Z,7.97
2019-02-08T13:36:38.102Z,10.53
2019-02-08T13:38:42.220Z,6.50
2019-02-08T13:40:46.538Z,10.63
2019-02-08T13:42:54.708Z,8.00
2019-02-08T13:44:58.525Z,7.08
2019-02-08T13:47:02.356Z,6.53
2019-02-08T13:49:06.558Z,8.73
2019-02-08T13:51:11.075Z,10.38
2019-02-08T13:53:15.181Z,6.50
2019-02-08T13:55:25.641Z,9.05
2019-02-08T13:57:29.753Z,11.70
2019-02-08T13:59:33.626Z,5.78
2019-02-08T14:01:37.441Z,8.18
2019-02-08T14:03:41.574Z,8.45
2019-02-08T14:05:45.832Z,8.45
2019-02-08T14:07:49.644Z,9.30
2019-02-08T14:09:53.464Z,9.70
2019-02-08T14:11:57.590Z,9.65
2019-02-08T14:14:02.539Z,9.58
2019-02-08T14:16:06.836Z,9.03
2019-02-08T14:18:10.751Z,6.08
2019-02-08T14:20:19.912Z,7.70
2019-02-08T14:22:24.787Z,12.60
2019-02-08T14:24:28.727Z,9.03
2019-02-08T14:26:32.608Z,6.90
2019-02-08T14:28:36.717Z,6.92
2019-02-08T14:30:42.937Z,7.03
2019-02-08T14:32:46.956Z,8.20
2019-02-08T14:34:50.774Z,6.22
2019-02-08T14:36:54.916Z,10.80
2019-02-08T14:38:59.018Z,7.30
2019-02-08T14:41:02.898Z,5.37
2019-02-08T14:43:07.129Z,8.13
2019-02-08T14:45:12.808Z,7.20
2019-02-08T14:47:16.881Z,6.92
2019-02-08T14:49:21.013Z,7.42
2019-02-08T14:51:25.117Z,11.40
2019-02-08T14:53:29.247Z,10.00
2019-02-08T14:55:33.433Z,8.03
2019-02-08T14:57:37.541Z,5.53
2019-02-08T14:59:43.197Z,6.28
2019-02-08T15:01:47.051Z,7.72
2019-02-08T15:03:50.852Z,4.97
2019-02-08T15:05:54.995Z,4.12
2019-02-08T15:07:59.123Z,4.33
2019-02-08T15:10:04.668Z,6.60
2019-02-08T15:12:08.777Z,9.05
2019-02-08T15:14:12.895Z,8.28
2019-02-08T15:16:17.018Z,7.22
2019-02-08T15:18:20.851Z,8.35
2019-02-08T15:20:32.692Z,5.43
2019-02-08T15:22:36.487Z,5.00
2019-02-08T15:24:40.597Z,5.00
2019-02-08T15:26:44.707Z,5.70
2019-02-08T15:28:48.595Z,10.98
2019-02-08T15:30:52.675Z,5.37
2019-02-08T15:32:56.847Z,6.72
2019-02-08T15:35:00.966Z,11.55
2019-02-08T15:37:05.262Z,6.67
2019-02-08T15:39:11.109Z,7.50
2019-02-08T15:41:15.199Z,13.28
2019-02-08T15:43:21.027Z,7.17
2019-02-08T15:45:25.194Z,7.08
2019-02-08T15:47:29.321Z,5.65
2019-02-08T15:49:33.154Z,7.60
2019-02-08T15:51:37.339Z,6.25
2019-02-08T15:53:41.141Z,9.78
2019-02-08T15:55:50.705Z,6.92
2019-02-08T15:57:54.867Z,7.08
2019-02-08T15:59:58.711Z,5.45
2019-02-08T16:02:02.889Z,4.87
2019-02-08T16:04:07.097Z,10.60
2019-02-08T16:06:11.410Z,6.62
2019-02-08T16:08:15.643Z,5.35
2019-02-08T16:10:19.848Z,9.90
2019-02-08T16:12:24.053Z,8.13
2019-02-08T16:14:28.163Z,7.20
2019-02-08T16:16:32.279Z,11.12
2019-02-08T16:18:36.487Z,4.60
2019-02-08T16:20:41.115Z,6.72
2019-02-08T16:22:44.993Z,6.47
2019-02-08T16:24:50.016Z,4.12
2019-02-08T16:26:54.155Z,8.78
2019-02-08T16:28:58.002Z,7.35
2019-02-08T16:31:02.163Z,6.37
2019-02-08T16:33:07.938Z,8.10
2019-02-08T16:35:13.743Z,7.65
2019-02-08T16:37:17.855Z,10.93
2019-02-08T16:39:21.983Z,8.50
2019-02-08T16:41:26.096Z,8.85
2019-02-08T16:43:30.399Z,7.35
2019-02-08T16:45:38.647Z,6.55
2019-02-08T16:47:42.832Z,8.83
2019-02-08T16:49:46.675Z,5.50
2019-02-08T16:51:50.854Z,11.05
2019-02-08T16:53:54.946Z,7.67
2019-02-08T16:55:59.738Z,7.55
2019-02-08T16:58:05.537Z,8.63
2019-02-08T17:00:20.591Z,5.42
2019-02-08T17:02:24.713Z,7.40
2019-02-08T17:04:28.819Z,10.40
2019-02-08T17:06:33.023Z,7.15
2019-02-08T17:08:36.842Z,6.22
2019-02-08T17:10:42.945Z,5.15
2019-02-08T17:12:47.346Z,8.65
2019-02-08T17:14:51.510Z,8.00
2019-02-08T17:16:55.624Z,9.50
2019-02-08T17:18:59.843Z,9.93
2019-02-08T17:21:03.944Z,8.13
2019-02-08T17:23:08.479Z,13.22
2019-02-08T17:25:12.693Z,7.37
2019-02-08T17:27:16.803Z,6.72
2019-02-08T17:29:20.936Z,10.78
2019-02-08T17:31:25.022Z,7.25
2019-02-08T17:33:29.135Z,10.38
2019-02-08T17:35:33.340Z,7.62
2019-02-08T17:37:37.538Z,13.98
2019-02-08T17:39:41.381Z,11.93
2019-02-08T17:41:45.565Z,8.03
2019-02-08T17:43:49.472Z,10.00
2019-02-08T17:45:54.373Z,8.28
2019-02-08T17:48:01.060Z,7.85
2019-02-08T17:50:07.789Z,9.08
2019-02-08T17:52:11.602Z,5.35
2019-02-08T17:54:15.423Z,9.10
2019-02-08T17:56:19.249Z,6.85
2019-02-08T17:58:23.363Z,7.10
2019-02-08T18:00:33.853Z,8.28
2019-02-08T18:02:38.034Z,7.35
2019-02-08T18:04:42.143Z,7.75
2019-02-08T18:06:47.906Z,10.28
2019-02-08T18:08:53.645Z,11.85
2019-02-08T18:10:57.655Z,6.40
2019-02-08T18:13:03.528Z,9.78
2019-02-08T18:15:10.847Z,7.47
2019-02-08T18:17:14.988Z,9.00
2019-02-08T18:19:18.833Z,5.62
2019-02-08T18:21:22.646Z,10.60
2019-02-08T18:23:26.816Z,8.55
2019-02-08T18:25:31.030Z,9.68
2019-02-08T18:27:34.882Z,11.28
2019-02-08T18:29:39.036Z,7.12
2019-02-08T18:31:43.171Z,8.70
2019-02-08T18:33:47.261Z,8.13
2019-02-08T18:35:51.471Z,11.55
2019-02-08T18:37:55.310Z,8.83
2019-02-08T18:39:59.495Z,6.90
2019-02-08T18:42:03.602Z,7.95
2019-02-08T18:44:07.456Z,14.93
2019-02-08T18:46:11.742Z,7.37
2019-02-08T18:48:15.926Z,6.40
2019-02-08T18:50:25.668Z,12.15
2019-02-08T18:52:29.831Z,8.05
2019-02-08T18:54:33.660Z,8.90
2019-02-08T18:56:37.510Z,7.33
2019-02-08T18:58:41.711Z,7.83
2019-02-08T19:00:51.145Z,7.33
2019-02-08T19:02:55.448Z,5.75
2019-02-08T19:04:59.876Z,8.80
2019-02-08T19:07:05.009Z,6.60
2019-02-08T19:09:09.742Z,10.53
2019-02-08T19:11:13.834Z,14.23
2019-02-08T19:13:17.709Z,12.63
2019-02-08T19:15:25.944Z,11.60
2019-02-08T19:17:30.062Z,18.90
2019-02-08T19:19:34.196Z,8.33
2019-02-08T19:21:38.388Z,10.60
2019-02-08T19:23:42.202Z,12.65
2019-02-08T19:25:46.806Z,23.90
2019-02-08T19:27:51.040Z,25.35
2019-02-08T19:29:55.252Z,16.02
2019-02-08T19:31:59.457Z,7.08
2019-02-08T19:34:03.446Z,9.03
2019-02-08T19:36:07.269Z,8.00
2019-02-08T19:38:11.478Z,5.78
2019-02-08T19:40:21.827Z,10.30
2019-02-08T19:42:25.758Z,10.53
2019-02-08T19:44:29.580Z,9.53
2019-02-08T19:46:33.615Z,12.37
2019-02-08T19:48:37.430Z,5.30
2019-02-08T19:50:47.056Z,12.10
2019-02-08T19:52:51.195Z,9.88
2019-02-08T19:54:55.436Z,12.13
2019-02-08T19:56:59.649Z,7.08
2019-02-08T19:59:03.874Z,9.60
2019-02-08T20:01:08.054Z,12.23
2019-02-08T20:03:12.060Z,8.33
2019-02-08T20:05:18.756Z,8.05
2019-02-08T20:07:22.634Z,6.33
2019-02-08T20:09:26.876Z,23.20
2019-02-08T20:11:31.086Z,7.17
2019-02-08T20:13:34.920Z,9.83
2019-02-08T20:15:39.078Z,6.75
2019-02-08T20:17:43.330Z,6.83
2019-02-08T20:19:48.685Z,6.35
2019-02-08T20:21:52.517Z,7.05
2019-02-08T20:23:56.338Z,10.78
2019-02-08T20:26:00.542Z,8.45
2019-02-08T20:28:05.607Z,8.28
2019-02-08T20:30:17.912Z,8.70
2019-02-08T20:32:22.098Z,33.55
2019-02-08T20:34:26.242Z,8.80
2019-02-08T20:36:30.568Z,8.88
2019-02-08T20:38:34.739Z,5.35
2019-02-08T20:40:44.348Z,7.40
2019-02-08T20:42:48.686Z,15.63
2019-02-08T20:44:52.935Z,9.73
2019-02-08T20:46:57.868Z,7.62
2019-02-08T20:49:02.037Z,4.03
2019-02-08T20:51:06.266Z,10.82
2019-02-08T20:53:10.797Z,6.97
2019-02-08T20:55:17.444Z,6.53
2019-02-08T20:57:21.528Z,8.85
2019-02-08T20:59:26.299Z,7.95
2019-02-08T21:01:30.115Z,6.45
2019-02-08T21:03:34.288Z,6.53
2019-02-08T21:05:38.570Z,11.70
2019-02-08T21:07:42.732Z,11.30
2019-02-08T21:09:46.981Z,5.60
2019-02-08T21:11:50.758Z,4.67
2019-02-08T21:13:54.939Z,8.30
2019-02-08T21:15:59.062Z,7.85
2019-02-08T21:18:03.264Z,6.65
2019-02-08T21:20:10.658Z,7.30
2019-02-08T21:22:14.771Z,8.90
2019-02-08T21:24:18.873Z,5.22
2019-02-08T21:26:23.693Z,5.70
2019-02-08T21:28:27.806Z,6.37
2019-02-08T21:30:32.052Z,6.70
2019-02-08T21:32:36.149Z,4.95
2019-02-08T21:34:40.030Z,7.05
2019-02-08T21:36:44.149Z,9.48
2019-02-08T21:38:48.271Z,5.42
2019-02-08T21:40:53.793Z,7.15
2019-02-08T21:43:02.149Z,5.75
2019-02-08T21:45:09.334Z,6.47
2019-02-08T21:47:13.143Z,7.03
2019-02-08T21:49:17.029Z,5.95
2019-02-08T21:51:20.901Z,11.28
2019-02-08T21:53:24.731Z,3.55
2019-02-08T21:55:29.957Z,8.13
2019-02-08T21:57:34.571Z,5.78
2019-02-08T21:59:38.713Z,7.25
2019-02-08T22:01:42.893Z,5.37
2019-02-08T22:03:46.695Z,7.47
2019-02-08T22:05:54.089Z,8.33
2019-02-08T22:07:58.184Z,7.67
2019-02-08T22:10:02.006Z,4.70
2019-02-08T22:12:06.115Z,7.65
2019-02-08T22:14:11.723Z,5.65
2019-02-08T22:16:15.527Z,7.92
2019-02-08T22:18:19.766Z,8.68
2019-02-08T22:20:24.301Z,5.87
2019-02-08T22:22:28.499Z,6.92
2019-02-08T22:24:32.725Z,6.22
2019-02-08T22:26:36.958Z,5.35
2019-02-08T22:28:40.743Z,5.20
2019-02-08T22:30:45.042Z,4.35
2019-02-08T22:32:50.363Z,6.25
2019-02-08T22:34:55.828Z,6.83
2019-02-08T22:37:00.039Z,4.22
2019-02-08T22:39:05.788Z,6.20
2019-02-08T22:41:09.903Z,5.58
2019-02-08T22:43:13.756Z,5.20
2019-02-08T22:45:26.318Z,5.35
2019-02-08T22:47:30.127Z,4.67
2019-02-08T22:49:34.345Z,6.58
2019-02-08T22:51:38.543Z,5.28
2019-02-08T22:53:42.375Z,5.25
2019-02-08T22:55:46.162Z,4.70
2019-02-08T22:57:50.249Z,5.58
2019-02-08T22:59:54.470Z,6.53
2019-02-08T23:01:58.409Z,5.67
2019-02-08T23:04:05.387Z,5.00
2019-02-08T23:06:11.063Z,8.88
2019-02-08T23:08:15.121Z,6.12
2019-02-08T23:10:19.317Z,6.40
2019-02-08T23:12:23.839Z,6.53
2019-02-08T23:14:27.727Z,5.40
2019-02-08T23:16:31.852Z,6.20
2019-02-08T23:18:36.165Z,5.72
2019-02-08T23:20:40.485Z,6.67
2019-02-08T23:22:46.135Z,4.75
2019-02-08T23:24:50.340Z,5.10
2019-02-08T23:26:54.456Z,6.47
2019-02-08T23:28:58.568Z,8.85
2019-02-08T23:31:02.535Z,7.30
2019-02-08T23:33:06.987Z,6.92
2019-02-08T23:35:14.473Z,7.00
2019-02-08T23:37:25.708Z,8.38
2019-02-08T23:39:24.541Z,5.85
2019-02-08T23:41:28.660Z,5.42
2019-02-08T23:43:33.383Z,5.25
2019-02-08T23:45:37.215Z,6.53
2019-02-08T23:47:41.397Z,8.00
2019-02-08T23:49:45.283Z,5.30
2019-02-08T23:51:49.407Z,7.20
2019-02-08T23:53:53.525Z,4.78
2019-02-08T23:55:57.744Z,4.67
2019-02-08T23:58:01.864Z,6.28
